McIntire, Iowa
Current Conditions -  °F | °C
As of 2:15 PM on Friday 31 Oct 2014 (Local Time) from KAUM Reporting Station
Clear Clear  
Wind Chill: 29°   Ceiling: Unl
Heat Index: 37°   Visibility: 10mi
Dew Point: 19°   Wind: 14mph
Humidity: 48%   Direction: 350°N
Pressure: 30.47"   Gusts: 18mph
Location:  43.44°N, 92.59°W
Report Text: KAUM 311915Z AUTO 35012G16KT 10SM CLR 03/M07 A3047 RMK AO2
Loading
Personal Weather Stations






























Interactive Weather Map
Tropical Storm Tracking
New forecast layout! Learn more

10-Day Weather Forecast

Advertisements
Track Severe Weather on mobile